Time;durP1;ratioP1;P1;durP2;ratioP2;P2;SDS_P1;SDS_P2;PMS_P1;PMS_P2;Temp;Humidity;BMP_temperature;BMP_pressure;BME280_temperature;BME280_humidity;BME280_pressure;Samples;Min_cycle;Max_cycle;Signal;HPM_P1;HPM_P2
2022/05/16 00:01:40;;;;;;;;;;;14.30;99.90;;;;;;5094017;28;19920;-65
2022/05/16 00:04:06;;;;;;;;;;;14.30;99.90;;;;;;5094196;28;19958;-65
2022/05/16 00:06:31;;;;;;;;;;;14.30;99.90;;;;;;5093876;28;19927;-66
2022/05/16 00:08:57;;;;;;;;;;;14.30;99.90;;;;;;5093971;28;19920;-66
2022/05/16 00:11:23;;;;;;;;;;;14.30;99.90;;;;;;5094114;28;19927;-65
2022/05/16 00:13:48;;;;;;;;;;;14.40;99.90;;;;;;5094251;28;20294;-66
2022/05/16 00:16:14;;;;;;;;;;;14.30;99.90;;;;;;5093850;28;19923;-66
2022/05/16 00:18:40;;;;;;;;;;;14.40;99.90;;;;;;5093880;28;19920;-66
2022/05/16 00:21:05;;;;;;;;;;;14.30;99.90;;;;;;5093511;28;19924;-65
2022/05/16 00:23:31;;;;;;;;;;;14.30;99.90;;;;;;5093548;28;20302;-65
2022/05/16 00:25:57;;;;;;;;;;;14.30;99.90;;;;;;5093562;28;19928;-66
2022/05/16 00:28:23;;;;;;;;;;;14.20;99.90;;;;;;5093732;28;20548;-65
2022/05/16 00:30:48;;;;;;;;;;;14.20;99.90;;;;;;5093916;28;19927;-66
2022/05/16 00:33:14;;;;;;;;;;;14.20;99.90;;;;;;5093547;28;20328;-65
2022/05/16 00:35:40;;;;;;;;;;;14.20;99.90;;;;;;5093484;28;20363;-65
2022/05/16 00:38:05;;;;;;;;;;;14.20;99.90;;;;;;5093792;28;19946;-65
2022/05/16 00:40:31;;;;;;;;;;;14.20;99.90;;;;;;5093571;28;19946;-65
2022/05/16 00:43:05;;;;;;;;;;;14.20;99.90;;;;;;5075560;28;19955;-65
2022/05/16 00:45:30;;;;;;;;;;;14.20;99.90;;;;;;5093975;28;19920;-66
2022/05/16 00:47:56;;;;;;;;;;;14.10;99.90;;;;;;5093162;28;19920;-65
2022/05/16 00:50:21;;;;;;;;;;;14.10;99.90;;;;;;5093419;28;19924;-66
2022/05/16 00:52:48;;;;;;;;;;;14.10;99.90;;;;;;5093731;28;20353;-66
2022/05/16 00:55:18;;;;;;;;;;;14.00;99.90;;;;;;5093055;28;19920;-65
2022/05/16 00:57:52;;;;;;;;;;;14.10;99.90;;;;;;5093526;28;19927;-66
2022/05/16 01:00:38;;;;;;;;;;;14.00;99.90;;;;;;5093646;28;19974;-65
2022/05/16 01:05:51;;;;;;;;;;;14.00;99.90;;;;;;5093745;28;19921;-66
2022/05/16 01:08:19;;;;;;;;;;;14.00;99.90;;;;;;5093798;28;19931;-65
2022/05/16 01:10:45;;;;;;;;;;;14.00;99.90;;;;;;5093345;28;20215;-66
2022/05/16 01:13:10;;;;;;;;;;;14.00;99.90;;;;;;5093160;28;19975;-65
2022/05/16 01:15:41;;;;;;;;;;;14.00;99.90;;;;;;5075629;28;19943;-66
2022/05/16 01:18:09;;;;;;;;;;;13.90;99.90;;;;;;5093417;28;19927;-65
2022/05/16 01:20:53;;;;;;;;;;;13.90;99.90;;;;;;5093508;28;19924;-66
2022/05/16 01:23:20;;;;;;;;;;;13.80;99.90;;;;;;5093016;28;19938;-65
2022/05/16 01:25:47;;;;;;;;;;;13.80;99.90;;;;;;5093165;28;19920;-65
2022/05/16 01:28:16;;;;;;;;;;;13.80;99.90;;;;;;5093620;28;19920;-65
2022/05/16 01:30:47;;;;;;;;;;;13.80;99.90;;;;;;5093623;28;19931;-66
2022/05/16 01:33:16;;;;;;;;;;;13.80;99.90;;;;;;5093286;28;19920;-65
2022/05/16 01:35:42;;;;;;;;;;;13.70;99.90;;;;;;5075072;28;19928;-65
2022/05/16 01:38:21;;;;;;;;;;;13.60;99.90;;;;;;5096215;28;20282;-65
2022/05/16 01:40:55;;;;;;;;;;;13.60;99.90;;;;;;5096880;28;20290;-66
2022/05/16 01:43:22;;;;;;;;;;;13.60;99.90;;;;;;5078458;28;19920;-64
2022/05/16 01:45:48;;;;;;;;;;;13.60;99.90;;;;;;5078997;28;19924;-65
2022/05/16 01:48:14;;;;;;;;;;;13.50;99.90;;;;;;5096787;28;20310;-66
2022/05/16 01:50:40;;;;;;;;;;;13.50;99.90;;;;;;5096912;28;19920;-65
2022/05/16 01:53:06;;;;;;;;;;;13.50;99.90;;;;;;5097016;28;19973;-66
2022/05/16 01:55:32;;;;;;;;;;;13.40;99.90;;;;;;5095547;28;20435;-60
2022/05/16 01:57:57;;;;;;;;;;;13.40;99.90;;;;;;5095509;28;19945;-60
2022/05/16 02:00:23;;;;;;;;;;;13.40;99.90;;;;;;5095012;28;19927;-60
2022/05/16 02:02:48;;;;;;;;;;;13.30;99.90;;;;;;5095050;28;19927;-60
2022/05/16 02:05:15;;;;;;;;;;;13.30;99.90;;;;;;5094887;28;19920;-60
2022/05/16 02:07:41;;;;;;;;;;;13.30;99.90;;;;;;5095157;28;20340;-61
2022/05/16 02:10:07;;;;;;;;;;;13.30;99.90;;;;;;5096117;28;19920;-65
2022/05/16 02:12:33;;;;;;;;;;;13.30;99.90;;;;;;5096591;28;20002;-66
2022/05/16 02:14:59;;;;;;;;;;;13.30;99.90;;;;;;5096133;28;19973;-66
2022/05/16 02:17:24;;;;;;;;;;;13.20;99.90;;;;;;5096337;28;19924;-67
2022/05/16 02:19:50;;;;;;;;;;;13.20;99.90;;;;;;5096604;28;20393;-66
2022/05/16 02:24:59;;;;;;;;;;;13.20;99.90;;;;;;5095020;28;19920;-60
2022/05/16 02:27:25;;;;;;;;;;;13.20;99.90;;;;;;5076570;28;20298;-60
2022/05/16 02:29:50;;;;;;;;;;;13.10;99.90;;;;;;5094772;28;20283;-60
2022/05/16 02:32:16;;;;;;;;;;;13.10;99.90;;;;;;5075768;28;19989;-60
2022/05/16 02:34:44;;;;;;;;;;;13.10;99.90;;;;;;5076226;28;20029;-61
2022/05/16 02:37:10;;;;;;;;;;;13.10;99.90;;;;;;5076462;28;19928;-61
2022/05/16 02:39:36;;;;;;;;;;;13.10;99.90;;;;;;5094419;28;19928;-60
2022/05/16 02:42:02;;;;;;;;;;;13.10;99.90;;;;;;5094199;28;20290;-60
2022/05/16 02:44:27;;;;;;;;;;;13.10;99.90;;;;;;5094097;28;20013;-61
2022/05/16 02:46:53;;;;;;;;;;;13.00;99.90;;;;;;5094085;28;19920;-60
2022/05/16 02:49:21;;;;;;;;;;;13.00;99.90;;;;;;5093483;28;19924;-60
2022/05/16 02:51:46;;;;;;;;;;;13.00;99.90;;;;;;5094304;28;19920;-60
2022/05/16 02:54:12;;;;;;;;;;;12.90;99.90;;;;;;5094126;28;20396;-60
2022/05/16 02:56:37;;;;;;;;;;;12.90;99.90;;;;;;5094079;28;19927;-60
2022/05/16 02:59:03;;;;;;;;;;;12.80;99.90;;;;;;5094026;28;19991;-60
2022/05/16 03:01:29;;;;;;;;;;;12.80;99.90;;;;;;5093968;28;20316;-60
2022/05/16 03:03:55;;;;;;;;;;;12.80;99.90;;;;;;5093779;28;19920;-60
2022/05/16 03:06:20;;;;;;;;;;;12.80;99.90;;;;;;5094128;28;19973;-60
2022/05/16 03:08:46;;;;;;;;;;;12.70;99.90;;;;;;5093895;28;19920;-61
2022/05/16 03:11:12;;;;;;;;;;;12.70;99.90;;;;;;5093774;28;19924;-60
2022/05/16 03:13:37;;;;;;;;;;;12.70;99.90;;;;;;5093628;28;20263;-60
2022/05/16 03:16:03;;;;;;;;;;;12.60;99.90;;;;;;5075575;28;19920;-60
2022/05/16 03:18:29;;;;;;;;;;;12.70;99.90;;;;;;5093881;28;19924;-60
2022/05/16 03:20:55;;;;;;;;;;;12.60;99.90;;;;;;5075534;28;19977;-60
2022/05/16 03:23:21;;;;;;;;;;;12.60;99.90;;;;;;5093670;28;19924;-60
2022/05/16 03:25:46;;;;;;;;;;;12.50;99.90;;;;;;5093375;28;19970;-60
2022/05/16 03:28:12;;;;;;;;;;;12.60;99.90;;;;;;5093367;28;19928;-60
2022/05/16 03:30:39;;;;;;;;;;;12.50;99.90;;;;;;5093286;28;20362;-60
2022/05/16 03:33:05;;;;;;;;;;;12.50;99.90;;;;;;5093347;28;19920;-60
2022/05/16 03:35:30;;;;;;;;;;;12.40;99.90;;;;;;5093459;28;19927;-60
2022/05/16 03:37:56;;;;;;;;;;;12.50;99.90;;;;;;5093175;28;19920;-60
2022/05/16 03:43:06;;;;;;;;;;;12.40;99.90;;;;;;5093154;28;20018;-60
2022/05/16 03:45:31;;;;;;;;;;;12.40;99.90;;;;;;5093144;28;20015;-61
2022/05/16 03:47:57;;;;;;;;;;;12.40;99.90;;;;;;5093225;28;19927;-60
2022/05/16 03:50:22;;;;;;;;;;;12.40;99.90;;;;;;5093060;28;20327;-60
2022/05/16 03:52:48;;;;;;;;;;;12.30;99.90;;;;;;5093036;28;20365;-60
2022/05/16 03:55:14;;;;;;;;;;;12.40;99.90;;;;;;5093216;28;20346;-60
2022/05/16 03:57:41;;;;;;;;;;;12.30;99.90;;;;;;5093004;28;20433;-60
2022/05/16 04:00:09;;;;;;;;;;;12.40;99.90;;;;;;5092279;28;19986;-60
2022/05/16 04:02:36;;;;;;;;;;;12.30;99.90;;;;;;5092927;28;19939;-61
2022/05/16 04:05:02;;;;;;;;;;;12.30;99.90;;;;;;5075142;28;19925;-62
2022/05/16 04:07:28;;;;;;;;;;;12.30;99.90;;;;;;5074970;28;20058;-61
2022/05/16 04:09:53;;;;;;;;;;;12.40;99.90;;;;;;5092670;28;20397;-61
2022/05/16 04:12:18;;;;;;;;;;;12.40;99.90;;;;;;5092528;28;19973;-61
2022/05/16 04:14:44;;;;;;;;;;;12.40;99.90;;;;;;5092729;28;20006;-61
2022/05/16 04:17:10;;;;;;;;;;;12.40;99.90;;;;;;5092727;28;19926;-61
2022/05/16 04:19:36;;;;;;;;;;;12.40;99.90;;;;;;5092427;28;20290;-60
2022/05/16 04:22:02;;;;;;;;;;;12.40;99.90;;;;;;5092533;28;19928;-60
2022/05/16 04:24:27;;;;;;;;;;;12.50;99.90;;;;;;5092423;28;19927;-60
2022/05/16 04:26:53;;;;;;;;;;;12.50;99.90;;;;;;5092391;28;19920;-60
2022/05/16 04:29:18;;;;;;;;;;;12.50;99.90;;;;;;5092568;28;19955;-60
2022/05/16 04:31:44;;;;;;;;;;;12.50;99.90;;;;;;5092574;28;20428;-61
2022/05/16 04:34:09;;;;;;;;;;;12.60;99.90;;;;;;5092491;28;20038;-61
2022/05/16 04:36:36;;;;;;;;;;;12.60;99.90;;;;;;5092332;28;20386;-60
2022/05/16 04:39:01;;;;;;;;;;;12.60;99.90;;;;;;5092351;28;20302;-61
2022/05/16 04:44:11;;;;;;;;;;;12.70;99.90;;;;;;5092288;28;19995;-61
2022/05/16 04:46:37;;;;;;;;;;;12.80;99.90;;;;;;5092431;28;20337;-61
2022/05/16 04:49:02;;;;;;;;;;;12.70;99.90;;;;;;5092026;28;20436;-61
2022/05/16 04:51:28;;;;;;;;;;;12.70;99.90;;;;;;5092209;28;19973;-61
2022/05/16 04:53:53;;;;;;;;;;;12.80;99.90;;;;;;5091996;28;19920;-61
2022/05/16 04:56:19;;;;;;;;;;;12.90;99.90;;;;;;5092190;28;19927;-61
2022/05/16 04:58:45;;;;;;;;;;;12.90;99.90;;;;;;5092257;28;19931;-61
2022/05/16 05:01:11;;;;;;;;;;;13.00;99.90;;;;;;5092212;28;19925;-61
2022/05/16 05:03:37;;;;;;;;;;;13.00;99.90;;;;;;5092154;28;20286;-60
2022/05/16 05:06:03;;;;;;;;;;;13.00;99.90;;;;;;5074165;28;19968;-61
2022/05/16 05:08:28;;;;;;;;;;;13.10;99.90;;;;;;5092037;28;20281;-60
2022/05/16 05:16:23;;;;;;;;;;;13.30;99.90;;;;;;5095835;28;20255;-60
2022/05/16 05:18:48;;;;;;;;;;;13.30;99.90;;;;;;5095780;28;19970;-61
2022/05/16 05:21:14;;;;;;;;;;;13.40;99.90;;;;;;5096005;28;20354;-61
2022/05/16 05:23:40;;;;;;;;;;;13.40;99.90;;;;;;5095903;28;19935;-60
2022/05/16 05:26:07;;;;;;;;;;;13.50;99.90;;;;;;5095867;28;19934;-60
2022/05/16 05:28:33;;;;;;;;;;;13.50;99.90;;;;;;5095681;28;19920;-61
2022/05/16 05:30:59;;;;;;;;;;;13.50;99.90;;;;;;5095682;28;19920;-61
2022/05/16 05:33:25;;;;;;;;;;;13.50;99.90;;;;;;5095528;28;19931;-61
2022/05/16 05:35:50;;;;;;;;;;;13.60;99.90;;;;;;5095542;28;19924;-61
2022/05/16 05:38:17;;;;;;;;;;;13.60;99.90;;;;;;5095447;28;19970;-60
2022/05/16 05:40:42;;;;;;;;;;;13.70;99.90;;;;;;5095522;28;20278;-61
2022/05/16 05:43:08;;;;;;;;;;;13.70;99.90;;;;;;5095145;28;19931;-61
2022/05/16 05:45:34;;;;;;;;;;;13.70;99.90;;;;;;5095415;28;19924;-60
2022/05/16 05:48:01;;;;;;;;;;;13.80;99.90;;;;;;5095239;28;19921;-60
2022/05/16 05:50:26;;;;;;;;;;;13.90;99.90;;;;;;5095329;28;19924;-60
2022/05/16 05:52:52;;;;;;;;;;;13.90;99.90;;;;;;5095330;28;19920;-61
2022/05/16 05:55:17;;;;;;;;;;;14.10;99.90;;;;;;5095533;28;19924;-61
2022/05/16 05:57:43;;;;;;;;;;;14.10;99.90;;;;;;5095391;28;19931;-61
2022/05/16 06:00:09;;;;;;;;;;;14.10;99.90;;;;;;5095067;28;19924;-60
2022/05/16 06:02:37;;;;;;;;;;;14.00;99.90;;;;;;5094887;28;19924;-60
2022/05/16 06:05:03;;;;;;;;;;;14.10;99.90;;;;;;5095259;28;19920;-60
2022/05/16 06:07:29;;;;;;;;;;;14.10;99.90;;;;;;5095165;28;19920;-60
2022/05/16 06:09:54;;;;;;;;;;;14.20;99.90;;;;;;5094938;28;19969;-60
2022/05/16 06:12:20;;;;;;;;;;;14.30;99.90;;;;;;5094928;28;19920;-60
2022/05/16 06:14:46;;;;;;;;;;;14.40;99.90;;;;;;5094775;28;20322;-60
2022/05/16 06:17:11;;;;;;;;;;;14.50;99.90;;;;;;5094808;28;19927;-60
2022/05/16 06:19:37;;;;;;;;;;;14.50;99.90;;;;;;5094689;28;19967;-60
2022/05/16 06:22:03;;;;;;;;;;;14.50;99.90;;;;;;5094293;28;19920;-60
2022/05/16 06:27:13;;;;;;;;;;;14.70;99.90;;;;;;5094734;28;19920;-60
2022/05/16 06:29:39;;;;;;;;;;;14.80;99.90;;;;;;5094658;28;20420;-60
2022/05/16 06:32:05;;;;;;;;;;;15.00;99.90;;;;;;5094515;28;19924;-60
2022/05/16 06:34:31;;;;;;;;;;;15.30;99.90;;;;;;5094910;28;19927;-60
2022/05/16 06:36:56;;;;;;;;;;;15.60;99.90;;;;;;5076805;28;19924;-60
2022/05/16 06:39:22;;;;;;;;;;;15.80;99.90;;;;;;5094542;28;20774;-60
2022/05/16 06:41:47;;;;;;;;;;;16.00;99.90;;;;;;5072330;28;19931;-60
2022/05/16 06:44:14;;;;;;;;;;;16.10;99.90;;;;;;5073911;28;19927;-60
2022/05/16 06:46:40;;;;;;;;;;;16.40;99.90;;;;;;5074257;28;19969;-61
2022/05/16 06:49:06;;;;;;;;;;;16.70;99.90;;;;;;5074071;28;19999;-61
2022/05/16 06:51:31;;;;;;;;;;;16.90;99.90;;;;;;5074027;28;20347;-60
2022/05/16 06:53:57;;;;;;;;;;;17.10;99.90;;;;;;5072606;28;20058;-61
2022/05/16 06:56:22;;;;;;;;;;;17.30;99.90;;;;;;5073774;28;19965;-61
2022/05/16 06:58:48;;;;;;;;;;;17.50;99.90;;;;;;5073716;28;20298;-61
2022/05/16 07:01:13;;;;;;;;;;;17.70;99.90;;;;;;5073621;28;19925;-60
2022/05/16 07:03:42;;;;;;;;;;;17.90;99.90;;;;;;5073846;28;19921;-60
2022/05/16 07:06:07;;;;;;;;;;;18.00;99.90;;;;;;5073637;28;20290;-61
2022/05/16 07:08:33;;;;;;;;;;;18.10;99.90;;;;;;5073534;28;19920;-60
2022/05/16 07:10:59;;;;;;;;;;;18.40;99.90;;;;;;5073577;28;19928;-61
2022/05/16 07:13:25;;;;;;;;;;;18.40;99.90;;;;;;5073337;28;20378;-61
2022/05/16 07:15:50;;;;;;;;;;;18.70;99.90;;;;;;5073439;28;19920;-60
2022/05/16 07:18:16;;;;;;;;;;;18.70;99.90;;;;;;5073446;28;20278;-60
2022/05/16 07:20:42;;;;;;;;;;;18.60;99.90;;;;;;5073544;28;20302;-60
2022/05/16 07:23:07;;;;;;;;;;;18.60;99.90;;;;;;5073527;28;20365;-61
2022/05/16 07:27:56;;;;;;;;;;;18.60;99.90;;;;;;5073323;28;19924;-61
2022/05/16 07:28:19;;;;;;;;;;;18.80;99.90;;;;;;5073135;28;19924;-61
2022/05/16 07:30:45;;;;;;;;;;;19.00;99.90;;;;;;5073425;28;19989;-60
2022/05/16 07:33:10;;;;;;;;;;;19.20;99.90;;;;;;5073190;28;19935;-61
2022/05/16 07:35:38;;;;;;;;;;;19.50;99.90;;;;;;5073062;28;20281;-61
2022/05/16 07:38:04;;;;;;;;;;;19.70;99.90;;;;;;5055051;28;19928;-61
2022/05/16 07:40:31;;;;;;;;;;;19.90;99.90;;;;;;5072738;28;20436;-65
2022/05/16 07:42:57;;;;;;;;;;;20.00;99.90;;;;;;5088568;28;19928;-66
2022/05/16 07:45:23;;;;;;;;;;;20.10;99.90;;;;;;5093600;28;19965;-65
2022/05/16 07:47:48;;;;;;;;;;;20.10;99.90;;;;;;5093135;28;19963;-65
2022/05/16 07:50:14;;;;;;;;;;;20.20;99.90;;;;;;5093516;28;19920;-65
2022/05/16 07:52:47;;;;;;;;;;;20.20;99.90;;;;;;5093156;28;19920;-65
2022/05/16 07:55:13;;;;;;;;;;;20.40;99.90;;;;;;5092812;28;19920;-65
2022/05/16 07:57:38;;;;;;;;;;;20.40;99.90;;;;;;5092958;28;19945;-65
2022/05/16 08:00:04;;;;;;;;;;;20.50;99.90;;;;;;5093194;28;20300;-65
2022/05/16 08:02:30;;;;;;;;;;;20.70;99.90;;;;;;5074356;28;19920;-66
2022/05/16 08:04:56;;;;;;;;;;;21.00;99.90;;;;;;5074815;28;19920;-66
2022/05/16 08:07:21;;;;;;;;;;;21.10;99.90;;;;;;5092865;28;19920;-66
2022/05/16 08:12:32;;;;;;;;;;;21.40;99.90;;;;;;5092944;28;19959;-66
2022/05/16 08:14:58;;;;;;;;;;;21.50;99.90;;;;;;5074716;28;19920;-66
2022/05/16 08:17:24;;;;;;;;;;;21.50;99.90;;;;;;5091885;28;19924;-66
2022/05/16 08:19:50;;;;;;;;;;;21.60;99.90;;;;;;5091439;28;20005;-65
2022/05/16 08:22:16;;;;;;;;;;;21.50;99.90;;;;;;5099650;28;19924;-65
2022/05/16 08:24:41;;;;;;;;;;;21.90;99.90;;;;;;5102853;28;20767;-64
2022/05/16 08:27:07;;;;;;;;;;;22.20;99.90;;;;;;5092418;28;19920;-65
2022/05/16 08:29:33;;;;;;;;;;;22.30;99.90;;;;;;5093488;28;19920;-65
2022/05/16 08:31:58;;;;;;;;;;;22.20;99.90;;;;;;5093111;28;19921;-66
2022/05/16 08:34:24;;;;;;;;;;;22.60;99.90;;;;;;5091582;28;20243;-66
2022/05/16 08:39:52;;;;;;;;;;;22.70;99.90;;;;;;5093005;28;19990;-65
2022/05/16 08:42:21;;;;;;;;;;;22.70;99.90;;;;;;5093364;28;19931;-65
2022/05/16 08:44:57;;;;;;;;;;;22.80;99.90;;;;;;5090687;28;20297;-66
2022/05/16 08:47:42;;;;;;;;;;;23.00;99.90;;;;;;5096395;28;20279;-65
2022/05/16 08:50:18;;;;;;;;;;;23.30;99.90;;;;;;5099305;28;19920;-64
2022/05/16 08:52:48;;;;;;;;;;;23.20;99.90;;;;;;5097379;28;19923;-65
2022/05/16 08:55:20;;;;;;;;;;;23.30;99.90;;;;;;5099529;28;19920;-64
2022/05/16 08:57:47;;;;;;;;;;;23.50;99.90;;;;;;5096036;28;19931;-64
2022/05/16 09:00:32;;;;;;;;;;;23.80;99.90;;;;;;5095922;28;19924;-64
2022/05/16 09:02:58;;;;;;;;;;;24.20;99.90;;;;;;5100058;28;19924;-64
2022/05/16 09:05:28;;;;;;;;;;;24.30;99.90;;;;;;5099893;28;20022;-66
2022/05/16 09:07:56;;;;;;;;;;;24.20;99.40;;;;;;5096454;28;19927;-66
2022/05/16 09:10:24;;;;;;;;;;;23.90;99.10;;;;;;5101985;28;19920;-65
2022/05/16 09:13:01;;;;;;;;;;;24.00;99.90;;;;;;5098647;28;19920;-66
2022/05/16 09:15:36;;;;;;;;;;;23.80;99.70;;;;;;5092550;28;19927;-65
2022/05/16 09:18:17;;;;;;;;;;;23.70;99.90;;;;;;5099061;28;19926;-65
2022/05/16 09:21:08;;;;;;;;;;;23.60;99.90;;;;;;5099179;28;20031;-66
2022/05/16 09:23:47;;;;;;;;;;;23.50;99.90;;;;;;5098083;28;20445;-65
2022/05/16 09:26:15;;;;;;;;;;;23.40;99.40;;;;;;5098933;28;19965;-65
2022/05/16 09:28:42;;;;;;;;;;;23.30;99.90;;;;;;5099583;28;20375;-66
2022/05/16 09:31:14;;;;;;;;;;;23.30;99.90;;;;;;5080977;28;19974;-67
2022/05/16 09:33:45;;;;;;;;;;;23.40;99.90;;;;;;5100384;28;19928;-67
2022/05/16 09:36:12;;;;;;;;;;;23.30;99.80;;;;;;5099938;28;19920;-67
2022/05/16 09:38:43;;;;;;;;;;;23.50;99.90;;;;;;5100596;28;19927;-66
2022/05/16 09:41:15;;;;;;;;;;;23.50;99.90;;;;;;5094655;28;20190;-66
2022/05/16 09:43:42;;;;;;;;;;;23.50;99.90;;;;;;5099217;28;20840;-66
2022/05/16 09:46:19;;;;;;;;;;;23.80;99.90;;;;;;5101032;28;20018;-65
2022/05/16 09:48:44;;;;;;;;;;;24.30;99.60;;;;;;5099569;28;20374;-66
2022/05/16 09:51:10;;;;;;;;;;;24.60;99.90;;;;;;5081712;28;19989;-66
2022/05/16 09:53:36;;;;;;;;;;;24.60;99.70;;;;;;5099396;28;19920;-65
2022/05/16 09:56:09;;;;;;;;;;;24.70;99.90;;;;;;5098594;28;19920;-65
2022/05/16 09:58:47;;;;;;;;;;;24.80;98.70;;;;;;5091067;28;20362;-65
2022/05/16 10:01:27;;;;;;;;;;;24.90;99.10;;;;;;5098775;28;20459;-65
2022/05/16 10:03:52;;;;;;;;;;;24.90;98.60;;;;;;5095424;28;20324;-65
2022/05/16 10:06:29;;;;;;;;;;;24.80;99.20;;;;;;5095010;28;19924;-65
2022/05/16 10:08:54;;;;;;;;;;;25.20;99.50;;;;;;5095329;28;19962;-66
2022/05/16 10:11:22;;;;;;;;;;;25.60;98.50;;;;;;5095156;28;19967;-66
2022/05/16 10:13:47;;;;;;;;;;;26.00;99.00;;;;;;5076244;28;20400;-66
2022/05/16 10:16:14;;;;;;;;;;;26.10;97.80;;;;;;5094719;28;19920;-66
2022/05/16 10:18:42;;;;;;;;;;;26.20;98.30;;;;;;5090772;28;20011;-66
2022/05/16 10:21:11;;;;;;;;;;;26.50;98.10;;;;;;5095063;28;20374;-66
2022/05/16 10:23:39;;;;;;;;;;;26.80;97.60;;;;;;5095333;28;19946;-66
2022/05/16 10:26:09;;;;;;;;;;;26.90;97.20;;;;;;5095220;28;19920;-66
2022/05/16 10:28:37;;;;;;;;;;;26.80;97.40;;;;;;5095281;28;19985;-66
2022/05/16 10:33:49;;;;;;;;;;;26.70;96.10;;;;;;5092847;28;19970;-65
2022/05/16 10:36:28;;;;;;;;;;;26.50;96.00;;;;;;5091098;28;20285;-66
2022/05/16 10:39:05;;;;;;;;;;;26.60;95.80;;;;;;5093695;28;19963;-65
2022/05/16 10:41:43;;;;;;;;;;;26.50;96.50;;;;;;5094512;28;19936;-66
2022/05/16 10:44:17;;;;;;;;;;;26.50;96.60;;;;;;5093926;28;20289;-66
2022/05/16 10:46:48;;;;;;;;;;;26.70;96.80;;;;;;5093373;28;20342;-65
2022/05/16 10:49:18;;;;;;;;;;;26.90;97.10;;;;;;5094156;28;19927;-65
2022/05/16 10:51:50;;;;;;;;;;;27.20;97.10;;;;;;5095933;28;20111;-65
2022/05/16 10:54:18;;;;;;;;;;;27.50;96.30;;;;;;5092980;28;20370;-65
2022/05/16 10:56:49;;;;;;;;;;;27.20;95.50;;;;;;5093690;28;19926;-65
2022/05/16 10:59:15;;;;;;;;;;;27.00;96.20;;;;;;5093338;28;20318;-66
2022/05/16 11:01:59;;;;;;;;;;;27.00;96.50;;;;;;5093715;28;19932;-65
2022/05/16 11:04:38;;;;;;;;;;;26.90;96.10;;;;;;5092264;28;19920;-65
2022/05/16 11:07:15;;;;;;;;;;;26.80;95.00;;;;;;5091718;28;19927;-65
2022/05/16 11:09:50;;;;;;;;;;;26.80;95.90;;;;;;5094259;28;19931;-65
2022/05/16 11:12:29;;;;;;;;;;;27.10;96.60;;;;;;5094078;28;19927;-66
2022/05/16 11:15:03;;;;;;;;;;;26.70;96.00;;;;;;5094308;28;19924;-65
2022/05/16 11:17:32;;;;;;;;;;;26.60;95.80;;;;;;5092357;28;19924;-65
2022/05/16 11:20:09;;;;;;;;;;;26.50;95.90;;;;;;5076062;28;19928;-65
2022/05/16 11:22:38;;;;;;;;;;;26.40;96.70;;;;;;5073682;28;19974;-60
2022/05/16 11:25:09;;;;;;;;;;;26.30;95.90;;;;;;5078459;28;19924;-60
2022/05/16 11:27:57;;;;;;;;;;;26.30;97.50;;;;;;5073578;28;19931;-60
2022/05/16 11:30:33;;;;;;;;;;;26.20;97.00;;;;;;5073745;28;19920;-60
2022/05/16 11:33:07;;;;;;;;;;;25.90;96.50;;;;;;5073295;28;20355;-60
2022/05/16 11:35:47;;;;;;;;;;;25.80;96.70;;;;;;5073263;28;20375;-58
2022/05/16 11:38:21;;;;;;;;;;;25.80;98.80;;;;;;5073029;28;20014;-58
2022/05/16 11:40:52;;;;;;;;;;;25.70;97.70;;;;;;5072799;28;19924;-58
2022/05/16 11:43:17;;;;;;;;;;;25.60;97.10;;;;;;5073051;28;19924;-58
2022/05/16 11:45:52;;;;;;;;;;;25.60;97.80;;;;;;5072934;28;19927;-57
2022/05/16 11:48:26;;;;;;;;;;;25.70;98.60;;;;;;5072710;28;20015;-58
2022/05/16 11:51:11;;;;;;;;;;;25.60;98.20;;;;;;5073376;28;20287;-58
2022/05/16 11:53:44;;;;;;;;;;;25.60;97.30;;;;;;5072816;28;19921;-57
2022/05/16 12:02:09;;;;;;;;;;;25.60;98.30;;;;;;5072678;28;19951;-57
2022/05/16 12:04:35;;;;;;;;;;;25.70;98.10;;;;;;5054933;28;19928;-57
2022/05/16 12:07:02;;;;;;;;;;;25.50;98.40;;;;;;5072599;28;19920;-57
2022/05/16 12:09:31;;;;;;;;;;;25.50;98.80;;;;;;5072376;28;19920;-57
2022/05/16 12:12:02;;;;;;;;;;;25.50;98.80;;;;;;5072751;28;19927;-57
2022/05/16 12:14:32;;;;;;;;;;;25.50;99.20;;;;;;5072628;28;19974;-57
2022/05/16 12:17:00;;;;;;;;;;;25.50;99.10;;;;;;5072430;28;20007;-57
2022/05/16 12:19:25;;;;;;;;;;;25.50;98.80;;;;;;5072365;28;19925;-59
2022/05/16 12:21:56;;;;;;;;;;;25.60;99.20;;;;;;5053936;28;19920;-59
2022/05/16 12:24:30;;;;;;;;;;;25.70;99.30;;;;;;5072477;28;20007;-60
2022/05/16 12:27:07;;;;;;;;;;;25.80;99.30;;;;;;5072378;28;19940;-59
2022/05/16 12:29:44;;;;;;;;;;;25.80;98.70;;;;;;5072136;28;19927;-66
2022/05/16 12:32:19;;;;;;;;;;;25.70;99.10;;;;;;5072186;28;19928;-65
2022/05/16 12:34:45;;;;;;;;;;;25.70;99.80;;;;;;5072249;28;19925;-65
2022/05/16 12:37:12;;;;;;;;;;;25.60;99.20;;;;;;5072228;28;19962;-65
2022/05/16 12:39:44;;;;;;;;;;;25.50;99.30;;;;;;5072002;28;19921;-65
2022/05/16 12:42:11;;;;;;;;;;;25.40;99.70;;;;;;5071708;28;19932;-65
2022/05/16 12:44:47;;;;;;;;;;;25.30;99.50;;;;;;5072169;28;19921;-65
2022/05/16 12:47:12;;;;;;;;;;;25.00;99.90;;;;;;5072167;28;19973;-65
2022/05/16 12:49:46;;;;;;;;;;;24.90;99.90;;;;;;5072073;28;19924;-65
2022/05/16 12:52:21;;;;;;;;;;;24.80;99.90;;;;;;5072035;28;19920;-65
2022/05/16 12:54:59;;;;;;;;;;;24.80;99.90;;;;;;5071704;28;20397;-65
2022/05/16 12:57:43;;;;;;;;;;;24.70;99.90;;;;;;5071848;28;19920;-66
2022/05/16 13:00:27;;;;;;;;;;;24.70;99.90;;;;;;5071909;28;19924;-66
2022/05/16 13:03:10;;;;;;;;;;;24.60;99.90;;;;;;5071902;28;19921;-66
2022/05/16 13:05:45;;;;;;;;;;;24.70;99.90;;;;;;5071622;28;19928;-66
2022/05/16 13:08:23;;;;;;;;;;;24.70;99.90;;;;;;5072051;28;19920;-66
2022/05/16 13:10:57;;;;;;;;;;;24.70;99.90;;;;;;5071890;28;19920;-65
2022/05/16 13:13:26;;;;;;;;;;;24.80;99.90;;;;;;5071777;28;20355;-65
2022/05/16 13:15:55;;;;;;;;;;;24.90;99.90;;;;;;5072206;28;19920;-65
2022/05/16 13:18:25;;;;;;;;;;;25.00;99.90;;;;;;5071844;28;19928;-66
2022/05/16 13:20:52;;;;;;;;;;;25.10;99.90;;;;;;5053876;28;19936;-66
2022/05/16 13:23:19;;;;;;;;;;;25.20;99.90;;;;;;5071752;28;19925;-66
2022/05/16 13:31:12;;;;;;;;;;;25.20;99.90;;;;;;5071619;28;19920;-66
2022/05/16 13:33:39;;;;;;;;;;;25.30;99.90;;;;;;5075103;28;20293;-66
2022/05/16 13:36:31;;;;;;;;;;;25.30;99.90;;;;;;5075318;28;19924;-66
2022/05/16 13:38:58;;;;;;;;;;;25.20;99.90;;;;;;5072008;28;20022;-66
2022/05/16 13:41:25;;;;;;;;;;;25.20;99.90;;;;;;5075295;28;20048;-66
2022/05/16 13:43:51;;;;;;;;;;;25.20;99.90;;;;;;5074957;28;19947;-66
2022/05/16 13:46:17;;;;;;;;;;;25.20;99.90;;;;;;5075059;28;20385;-60
2022/05/16 13:48:43;;;;;;;;;;;25.10;99.90;;;;;;5075190;28;19920;-59
2022/05/16 13:51:09;;;;;;;;;;;25.00;99.90;;;;;;5075097;28;20393;-59
2022/05/16 13:53:37;;;;;;;;;;;24.90;99.90;;;;;;5074928;28;19924;-60
2022/05/16 13:56:03;;;;;;;;;;;24.80;99.90;;;;;;5074947;28;20385;-64
2022/05/16 13:58:30;;;;;;;;;;;24.70;99.90;;;;;;5075018;28;19927;-67
2022/05/16 14:01:28;;;;;;;;;;;24.50;99.90;;;;;;5074892;28;20023;-64
2022/05/16 14:03:59;;;;;;;;;;;24.40;99.90;;;;;;5012995;28;20273;-66
2022/05/16 14:06:30;;;;;;;;;;;24.40;99.90;;;;;;5012791;28;19949;-66
2022/05/16 14:09:00;;;;;;;;;;;24.20;99.90;;;;;;5012876;28;19933;-66
2022/05/16 14:11:26;;;;;;;;;;;24.30;99.90;;;;;;5012909;28;19972;-66
2022/05/16 14:13:54;;;;;;;;;;;24.30;99.90;;;;;;5012710;28;19971;-66
2022/05/16 14:16:25;;;;;;;;;;;24.30;99.90;;;;;;5012758;28;19921;-66
2022/05/16 14:18:58;;;;;;;;;;;24.40;99.90;;;;;;5012650;28;19929;-66
2022/05/16 14:21:26;;;;;;;;;;;24.60;99.90;;;;;;5012740;28;20028;-66
2022/05/16 14:24:00;;;;;;;;;;;24.80;99.90;;;;;;5012588;28;19921;-66
2022/05/16 14:26:34;;;;;;;;;;;25.10;99.90;;;;;;5012565;28;19972;-66
2022/05/16 14:29:20;;;;;;;;;;;25.30;99.90;;;;;;5012553;28;19925;-66
2022/05/16 14:31:48;;;;;;;;;;;25.40;99.90;;;;;;4973316;28;20404;-66
2022/05/16 14:34:24;;;;;;;;;;;25.40;99.90;;;;;;4973420;28;20017;-66
2022/05/16 14:36:52;;;;;;;;;;;25.50;99.90;;;;;;4973310;28;19926;-66
2022/05/16 14:39:17;;;;;;;;;;;25.50;99.90;;;;;;4990034;28;19921;-66
2022/05/16 14:42:06;;;;;;;;;;;25.50;99.90;;;;;;5012063;28;19926;-66
2022/05/16 14:44:34;;;;;;;;;;;25.60;99.90;;;;;;4972514;28;19926;-66
2022/05/16 14:47:02;;;;;;;;;;;25.50;99.90;;;;;;4973088;28;19922;-66
2022/05/16 14:49:29;;;;;;;;;;;25.60;99.90;;;;;;4973015;28;19972;-66
2022/05/16 14:51:54;;;;;;;;;;;25.50;99.90;;;;;;4972994;28;19922;-65
2022/05/16 14:54:39;;;;;;;;;;;25.50;99.90;;;;;;4940920;28;19932;-66
2022/05/16 14:57:05;;;;;;;;;;;25.50;99.90;;;;;;4973269;28;20758;-65
2022/05/16 14:59:31;;;;;;;;;;;25.50;99.90;;;;;;4956815;28;19929;-66
2022/05/16 15:04:41;;;;;;;;;;;25.40;99.90;;;;;;4972912;28;20065;-66
2022/05/16 15:07:07;;;;;;;;;;;25.20;99.90;;;;;;4972843;28;20001;-66